Barnard, South Dakota
Current Conditions -  °F | °C
As of 3:53 AM on Saturday 20 Dec 2014 (Local Time) from KABR Reporting Station
Haze Haze  
Wind Chill: 18°   Ceiling: 400
Heat Index: 27°   Visibility: 4mi
Dew Point: 25°   Wind: 9mph
Humidity: 92%   Direction: 180°S
Pressure: 30.01"   Gusts: NA
Location:  45.73°N, 98.5°W
Report Text: KABR 200953Z AUTO 18008KT 4SM BR OVC004 M03/M04 A3001 RMK AO2 SLP178 T10281039
Loading
Personal Weather Stations






























Interactive Weather Map New forecast layout! Learn more

10-Day Weather Forecast

Advertisements
Track Severe Weather on mobile